Time;durP1;ratioP1;P1;durP2;ratioP2;P2;SDS_P1;SDS_P2;PMS_P1;PMS_P2;Temp;Humidity;BMP_temperature;BMP_pressure;BME280_temperature;BME280_humidity;BME280_pressure;Samples;Min_cycle;Max_cycle;Signal;HPM_P1;HPM_P2
2022/05/04 00:01:45;;;;;;;8.87;8.20;;;;;;;9.88;93.86;99619.53;5073210;28;20696;-71
2022/05/04 00:04:11;;;;;;;9.10;8.23;;;;;;;9.95;93.06;99624.91;5073810;28;20556;-72
2022/05/04 00:06:38;;;;;;;8.90;8.17;;;;;;;9.99;93.91;99628.81;5073431;28;20256;-72
2022/05/04 00:09:05;;;;;;;9.67;8.87;;;;;;;9.95;93.08;99630.19;5073249;28;20192;-72
2022/05/04 00:11:33;;;;;;;10.10;9.10;;;;;;;9.99;93.18;99628.81;5073147;28;20200;-71
2022/05/04 00:13:59;;;;;;;10.20;9.33;;;;;;;10.01;93.58;99637.44;5072922;28;20289;-71
2022/05/04 00:16:26;;;;;;;10.83;9.93;;;;;;;10.03;94.07;99628.25;5073107;28;20656;-71
2022/05/04 00:18:53;;;;;;;12.97;11.97;;;;;;;10.03;93.86;99627.44;5073306;28;20196;-71
2022/05/04 00:21:20;;;;;;;14.10;12.80;;;;;;;10.04;94.99;99627.25;5072948;28;20277;-71
2022/05/04 00:23:46;;;;;;;15.90;14.27;;;;;;;9.97;95.45;99620.25;5073268;28;20197;-71
2022/05/04 00:26:13;;;;;;;15.30;14.00;;;;;;;9.95;95.50;99625.72;5072956;28;20189;-71
2022/05/04 00:28:41;;;;;;;22.77;14.93;;;;;;;9.81;95.46;99623.13;5073442;28;20246;-72
2022/05/04 00:31:08;;;;;;;14.43;13.03;;;;;;;9.74;95.67;99627.53;5072787;28;20255;-71
2022/05/04 00:33:34;;;;;;;15.20;13.13;;;;;;;9.69;95.38;99627.28;5073099;28;20192;-70
2022/05/04 00:36:01;;;;;;;13.30;12.20;;;;;;;9.55;95.50;99625.47;5072689;28;20196;-69
2022/05/04 00:38:28;;;;;;;14.77;13.23;;;;;;;9.44;96.08;99607.41;5073048;28;20257;-69
2022/05/04 00:40:54;;;;;;;15.80;12.80;;;;;;;9.56;96.20;99621.81;5072891;28;20251;-68
2022/05/04 00:43:23;;;;;;;13.50;12.27;;;;;;;9.48;95.79;99627.25;5072890;28;20200;-68
2022/05/04 00:45:51;;;;;;;13.03;11.93;;;;;;;9.50;96.48;99622.56;5072843;28;20193;-68
2022/05/04 00:48:18;;;;;;;14.17;11.57;;;;;;;9.42;95.86;99627.97;5072788;28;20241;-68
2022/05/04 00:50:47;;;;;;;13.77;12.07;;;;;;;9.39;95.76;99621.19;5073014;28;20241;-68
2022/05/04 00:53:15;;;;;;;13.37;11.97;;;;;;;9.32;95.30;99606.22;5071526;28;20188;-68
2022/05/04 00:55:42;;;;;;;12.63;11.50;;;;;;;9.33;95.66;99623.78;5072653;28;20249;-68
2022/05/04 01:00:54;;;;;;;13.10;11.90;;;;;;;9.03;96.51;99624.81;5072673;28;20249;-69
2022/05/04 01:03:21;;;;;;;14.97;12.77;;;;;;;9.04;96.49;99631.75;5072587;28;20249;-69
2022/05/04 01:05:48;;;;;;;13.03;11.80;;;;;;;9.08;96.60;99638.31;5072822;28;20245;-69
2022/05/04 01:08:14;;;;;;;13.63;12.33;;;;;;;9.14;96.13;99645.53;5072183;28;20241;-69
2022/05/04 01:10:41;;;;;;;13.57;12.27;;;;;;;9.13;96.34;99646.53;5072213;28;20235;-69
2022/05/04 01:13:08;;;;;;;13.53;12.13;;;;;;;9.05;95.99;99643.97;5072369;28;20223;-69
2022/05/04 01:15:34;;;;;;;13.27;11.97;;;;;;;9.05;96.06;99643.97;5072083;28;20218;-69
2022/05/04 01:18:03;;;;;;;13.37;12.17;;;;;;;8.94;96.88;99636.50;5072032;28;20191;-69
2022/05/04 01:20:30;;;;;;;13.53;12.33;;;;;;;8.86;95.96;99633.94;5072574;28;20227;-69
2022/05/04 01:22:58;;;;;;;15.27;11.83;;;;;;;8.70;96.17;99629.59;5072060;28;20245;-69
2022/05/04 01:25:25;;;;;;;12.93;11.57;;;;;;;8.63;97.30;99626.06;5071798;28;20226;-69
2022/05/04 01:27:51;;;;;;;13.57;12.30;;;;;;;8.54;98.15;99628.97;5071969;28;20675;-69
2022/05/04 01:30:18;;;;;;;12.80;11.73;;;;;;;8.41;99.32;99628.75;5072252;28;20245;-69
2022/05/04 01:32:45;;;;;;;12.87;11.57;;;;;;;8.45;99.37;99614.16;5071925;28;20195;-69
2022/05/04 01:35:12;;;;;;;14.50;12.57;;;;;;;8.46;99.08;99615.78;5072156;28;20196;-69
2022/05/04 01:37:38;;;;;;;12.60;11.50;;;;;;;8.43;99.98;99608.22;5072245;28;20196;-69
2022/05/04 01:40:08;;;;;;;12.60;11.50;;;;;;;8.42;100.00;99607.38;5072754;28;20228;-68
2022/05/04 01:42:34;;;;;;;13.03;11.83;;;;;;;8.41;100.00;99612.88;5072631;28;20277;-69
2022/05/04 01:45:03;;;;;;;12.33;11.33;;;;;;;8.35;100.00;99608.28;5072178;28;20192;-68
2022/05/04 01:47:30;;;;;;;12.37;11.37;;;;;;;8.50;100.00;99614.44;5072368;28;20227;-69
2022/05/04 01:49:57;;;;;;;12.63;11.53;;;;;;;8.45;100.00;99619.44;5072626;28;20188;-69
2022/05/04 01:52:23;;;;;;;12.43;11.27;;;;;;;8.41;100.00;99626.91;5072013;28;20196;-69
2022/05/04 01:54:50;;;;;;;13.67;12.10;;;;;;;8.59;100.00;99618.66;5072014;28;20196;-68
2022/05/04 01:57:18;;;;;;;11.87;10.83;;;;;;;8.68;100.00;99623.69;5071706;28;20615;-69
2022/05/04 01:59:45;;;;;;;11.23;10.20;;;;;;;8.78;100.00;99621.59;5071973;28;20192;-69
2022/05/04 02:02:11;;;;;;;12.27;11.03;;;;;;;8.89;99.44;99613.19;5071869;28;20219;-68
2022/05/04 02:04:39;;;;;;;11.33;10.43;;;;;;;9.01;99.47;99605.59;5074444;28;20551;-68
2022/05/04 02:07:08;;;;;;;13.80;10.37;;;;;;;9.11;97.96;99611.47;5076456;28;20285;-69
2022/05/04 02:09:36;;;;;;;10.87;10.07;;;;;;;9.19;98.03;99611.38;5075513;28;20552;-69
2022/05/04 02:12:03;;;;;;;10.60;9.57;;;;;;;9.25;96.40;99613.28;5075466;28;20674;-68
2022/05/04 02:14:31;;;;;;;10.40;9.50;;;;;;;9.31;95.68;99625.81;5076251;28;20231;-68
2022/05/04 02:16:58;;;;;;;12.87;9.70;;;;;;;9.34;96.87;99618.28;5076010;28;20246;-68
2022/05/04 02:19:25;;;;;;;10.73;9.80;;;;;;;9.45;95.89;99630.25;5075563;28;20655;-69
2022/05/04 02:21:52;;;;;;;9.07;8.37;;;;;;;9.47;94.79;99628.22;5076315;28;20219;-68
2022/05/04 02:24:19;;;;;;;9.53;8.90;;;;;;;9.45;94.75;99619.66;5075562;28;20195;-69
2022/05/04 02:26:45;;;;;;;9.67;8.77;;;;;;;9.43;94.52;99624.28;5075171;28;20191;-68
2022/05/04 02:29:12;;;;;;;9.90;9.03;;;;;;;9.39;94.02;99628.34;5075108;28;20737;-68
2022/05/04 02:31:40;;;;;;;11.50;10.33;;;;;;;9.36;94.09;99634.03;5075080;28;20621;-68
2022/05/04 02:34:06;;;;;;;11.83;9.87;;;;;;;9.27;93.96;99635.13;5075578;28;20248;-69
2022/05/04 02:39:17;;;;;;;9.03;8.27;;;;;;;9.29;92.98;99635.75;5075442;28;20180;-68
2022/05/04 02:41:45;;;;;;;9.10;8.40;;;;;;;9.29;93.67;99635.75;5075052;28;20281;-69
2022/05/04 02:44:12;;;;;;;8.27;7.70;;;;;;;9.31;93.23;99631.09;5074899;28;20192;-69
2022/05/04 02:46:40;;;;;;;8.33;7.57;;;;;;;9.26;93.15;99634.28;5074881;28;20282;-69
2022/05/04 02:49:07;;;;;;;8.50;6.33;;;;;;;9.25;93.86;99637.13;5075208;28;20188;-69
2022/05/04 02:51:33;;;;;;;7.73;6.93;;;;;;;9.31;92.92;99633.75;5074900;28;20204;-70
2022/05/04 02:54:00;;;;;;;7.17;6.57;;;;;;;9.32;92.40;99635.38;5075196;28;20245;-70
2022/05/04 02:56:27;;;;;;;7.63;7.03;;;;;;;9.36;91.66;99636.66;5075502;28;20258;-70
2022/05/04 02:58:53;;;;;;;7.27;6.83;;;;;;;9.38;91.38;99642.59;5074605;28;20663;-70
2022/05/04 03:04:07;;;;;;;10.27;6.63;;;;;;;9.44;91.32;99645.31;5075209;28;20563;-70
2022/05/04 03:06:34;;;;;;;7.27;6.83;;;;;;;9.44;91.53;99644.53;5074441;28;20192;-70
2022/05/04 03:09:01;;;;;;;8.43;7.70;;;;;;;9.46;91.50;99650.44;5075001;28;20192;-70
2022/05/04 03:14:12;;;;;;;7.53;6.93;;;;;;;9.33;90.94;99650.28;5074899;28;20238;-70
2022/05/04 03:16:40;;;;;;;7.60;6.90;;;;;;;9.30;91.22;99648.81;5073825;28;20249;-69
2022/05/04 03:19:08;;;;;;;7.17;6.50;;;;;;;9.33;92.13;99653.75;5074603;28;20274;-71
2022/05/04 03:21:35;;;;;;;6.83;6.40;;;;;;;9.39;92.05;99657.50;5074895;28;20220;-70
2022/05/04 03:24:02;;;;;;;7.00;6.53;;;;;;;9.44;91.42;99657.78;5074456;28;20199;-70
2022/05/04 03:26:29;;;;;;;9.53;6.63;;;;;;;9.47;91.42;99674.13;5074323;28;20196;-70
2022/05/04 03:28:56;;;;;;;6.97;6.10;;;;;;;9.48;91.23;99662.50;5074282;28;20192;-70
2022/05/04 03:31:23;;;;;;;7.23;6.63;;;;;;;9.43;90.91;99670.19;5075097;28;20196;-70
2022/05/04 03:33:49;;;;;;;6.43;6.00;;;;;;;9.36;91.53;99663.19;5074811;28;20189;-70
2022/05/04 03:36:18;;;;;;;7.90;7.13;;;;;;;9.45;92.16;99672.66;5074064;28;20192;-70
2022/05/04 03:38:45;;;;;;;8.30;7.60;;;;;;;9.45;91.35;99670.03;5074075;28;20196;-69
2022/05/04 03:41:12;;;;;;;8.33;7.50;;;;;;;9.53;91.83;99664.63;5073988;28;20230;-69
2022/05/04 03:43:38;;;;;;;10.90;8.03;;;;;;;9.64;91.62;99664.16;5073772;28;20771;-69
2022/05/04 03:46:13;;;;;;;10.30;8.10;;;;;;;9.61;90.50;99672.47;5074518;28;20241;-69
2022/05/04 03:48:40;;;;;;;9.20;8.30;;;;;;;9.61;90.70;99680.44;5073940;28;20275;-70
2022/05/04 03:51:06;;;;;;;8.97;8.27;;;;;;;9.67;89.66;99672.53;5073455;28;20261;-69
2022/05/04 03:53:34;;;;;;;9.23;8.50;;;;;;;9.78;90.71;99674.72;5073159;28;20552;-69
2022/05/04 03:56:01;;;;;;;22.07;10.60;;;;;;;10.19;89.48;99673.16;5074166;28;20188;-69
2022/05/04 03:58:28;;;;;;;9.97;8.13;;;;;;;10.77;86.43;99680.00;5074553;28;20201;-72
2022/05/04 04:00:55;;;;;;;24.60;9.73;;;;;;;11.21;83.35;99680.53;5073796;28;20189;-69
2022/05/04 04:03:21;;;;;;;9.43;8.17;;;;;;;11.09;81.76;99687.41;5073613;28;20288;-69
2022/05/04 04:05:48;;;;;;;7.97;7.37;;;;;;;11.00;81.92;99685.91;5073529;28;20262;-70
2022/05/04 04:08:15;;;;;;;30.77;10.40;;;;;;;11.33;82.89;99686.13;5073299;28;20247;-69
2022/05/04 04:10:43;;;;;;;11.23;7.73;;;;;;;12.01;81.03;99688.72;5073177;28;20232;-69
2022/05/04 04:13:09;;;;;;;31.73;8.53;;;;;;;12.74;77.59;99701.97;5073206;28;20717;-69
2022/05/04 04:15:36;;;;;;;14.33;7.87;;;;;;;13.26;75.78;99713.44;5073073;28;20658;-70
2022/05/04 04:18:03;;;;;;;10.47;7.60;;;;;;;13.61;72.08;99720.13;5073400;28;20199;-70
2022/05/04 04:23:14;;;;;;;19.13;8.27;;;;;;;14.27;68.56;99729.56;5073321;28;20292;-70
2022/05/04 04:25:41;;;;;;;11.50;7.10;;;;;;;14.73;67.23;99730.06;5072757;28;20192;-70
2022/05/04 04:28:09;;;;;;;7.77;6.50;;;;;;;15.39;65.87;99725.81;5071932;28;20188;-70
2022/05/04 04:30:37;;;;;;;5.90;5.40;;;;;;;16.34;70.11;99716.25;5072625;28;20191;-71
2022/05/04 04:33:04;;;;;;;11.87;5.23;;;;;;;17.36;63.47;99735.50;5072191;28;20211;-69
2022/05/04 04:35:31;;;;;;;7.30;6.57;;;;;;;17.88;56.96;99745.28;5072857;28;20516;-71
2022/05/04 04:37:58;;;;;;;9.83;5.57;;;;;;;18.93;63.27;99721.25;5072700;28;20187;-69
2022/05/04 04:40:25;;;;;;;6.47;5.40;;;;;;;19.65;55.00;99730.19;5072326;28;20195;-67
2022/05/04 04:42:51;;;;;;;9.17;5.63;;;;;;;19.66;51.29;99738.03;5073050;28;20289;-67
2022/05/04 04:45:19;;;;;;;29.63;6.17;;;;;;;18.84;49.72;99744.25;5072828;28;20196;-68
2022/05/04 04:47:46;;;;;;;6.03;5.43;;;;;;;18.13;52.74;99738.53;5072660;28;20634;-68
2022/05/04 04:50:13;;;;;;;5.23;4.77;;;;;;;17.35;54.56;99723.13;5072181;28;20721;-68
2022/05/04 04:52:40;;;;;;;15.07;6.17;;;;;;;17.02;55.43;99720.19;5072186;28;20678;-68
2022/05/04 04:55:08;;;;;;;5.47;5.07;;;;;;;17.39;55.13;99716.22;5070602;28;20199;-69
2022/05/04 04:57:35;;;;;;;10.87;5.53;;;;;;;17.38;54.68;99717.25;5071862;28;20665;-68
2022/05/04 05:00:02;;;;;;;5.77;5.10;;;;;;;17.60;53.82;99726.41;5072572;28;20191;-67
2022/05/04 05:02:30;;;;;;;8.33;5.73;;;;;;;17.69;53.46;99727.66;5072619;28;20227;-68
2022/05/04 05:04:56;;;;;;;7.67;6.20;;;;;;;17.79;53.02;99727.88;5072151;28;20249;-67
2022/05/04 05:07:23;;;;;;;14.90;5.90;;;;;;;17.18;55.54;99716.78;5069689;28;20196;-67
2022/05/04 05:09:50;;;;;;;5.63;5.13;;;;;;;16.72;56.09;99716.72;5071962;28;20188;-67
2022/05/04 05:12:17;;;;;;;12.07;5.20;;;;;;;16.25;61.29;99705.00;5071649;28;20693;-68
2022/05/04 05:17:28;;;;;;;6.60;6.00;;;;;;;16.35;61.00;99709.81;5072354;28;20630;-67
2022/05/04 05:19:56;;;;;;;23.17;6.17;;;;;;;16.89;58.58;99706.97;5072358;28;20241;-67
2022/05/04 05:22:22;;;;;;;5.97;5.30;;;;;;;17.01;58.28;99716.69;5071883;28;20293;-67
2022/05/04 05:24:49;;;;;;;17.47;6.40;;;;;;;17.76;56.51;99720.31;5072158;28;20247;-67
2022/05/04 05:27:16;;;;;;;22.90;6.37;;;;;;;18.37;54.67;99723.16;5071717;28;20663;-66
2022/05/04 05:29:43;;;;;;;9.37;5.53;;;;;;;18.42;53.14;99723.28;5071755;28;20246;-67
2022/05/04 05:32:10;;;;;;;7.90;5.40;;;;;;;18.43;53.47;99727.59;5069412;28;20204;-66
2022/05/04 05:34:37;;;;;;;15.30;5.50;;;;;;;19.59;53.33;99720.38;5071485;28;20192;-69
2022/05/04 05:37:05;;;;;;;27.07;5.90;;;;;;;20.69;49.50;99739.81;5071657;28;20675;-68
2022/05/04 05:39:33;;;;;;;10.07;5.30;;;;;;;20.62;46.69;99745.41;5071701;28;20199;-68
2022/05/04 05:41:59;;;;;;;8.10;5.03;;;;;;;20.79;46.33;99748.00;5071111;28;20285;-68
2022/05/04 05:44:26;;;;;;;11.97;5.67;;;;;;;20.58;48.26;99747.81;5071785;28;20198;-68
2022/05/04 05:46:53;;;;;;;15.37;5.97;;;;;;;20.27;49.41;99742.34;5071242;28;20207;-67
2022/05/04 05:49:20;;;;;;;11.07;5.17;;;;;;;19.72;51.32;99738.88;5071767;28;20236;-68
2022/05/04 05:51:46;;;;;;;14.13;4.80;;;;;;;19.29;52.22;99733.41;5070197;28;20257;-69
2022/05/04 05:54:14;;;;;;;5.83;4.30;;;;;;;18.92;52.67;99734.94;5070481;28;20201;-70
2022/05/04 05:56:41;;;;;;;6.07;4.50;;;;;;;18.45;53.19;99733.53;5069901;28;20663;-70
2022/05/04 05:59:08;;;;;;;28.03;5.60;;;;;;;18.20;54.54;99730.34;5070035;28;20248;-69
2022/05/04 06:01:35;;;;;;;25.07;5.13;;;;;;;18.00;54.26;99730.75;5070080;28;20187;-68
2022/05/04 06:04:02;;;;;;;6.03;4.20;;;;;;;17.68;54.79;99723.34;5063099;28;20216;-68
2022/05/04 06:06:28;;;;;;;5.97;4.90;;;;;;;17.46;56.73;99722.31;5058726;28;20189;-71
2022/05/04 06:08:55;;;;;;;4.43;4.10;;;;;;;17.33;56.94;99730.56;5070230;28;20667;-71
2022/05/04 06:11:23;;;;;;;8.97;4.67;;;;;;;17.09;59.09;99728.94;5067344;28;20192;-69
2022/05/04 06:13:52;;;;;;;15.67;4.67;;;;;;;16.85;58.63;99732.63;5069683;28;20224;-70
2022/05/04 06:16:19;;;;;;;4.67;4.33;;;;;;;16.61;59.01;99722.91;5071066;28;20278;-72
2022/05/04 06:18:46;;;;;;;6.20;4.70;;;;;;;16.47;60.75;99721.44;5070302;28;20245;-70
2022/05/04 06:21:12;;;;;;;11.30;4.60;;;;;;;16.37;61.27;99721.16;5070213;28;20196;-70
2022/05/04 06:23:39;;;;;;;7.47;4.40;;;;;;;16.46;61.77;99722.50;5069120;28;20633;-70
2022/05/04 06:26:06;;;;;;;17.00;5.23;;;;;;;16.51;61.13;99728.00;5070934;28;20195;-70
2022/05/04 06:28:34;;;;;;;9.80;4.80;;;;;;;16.56;61.69;99725.44;5071187;28;20210;-68
2022/05/04 06:36:28;;;;;;;5.00;4.50;;;;;;;16.43;61.55;99722.94;5070270;28;20177;-67
2022/05/04 06:38:55;;;;;;;5.73;4.93;;;;;;;16.07;61.84;99725.66;5069063;28;20196;-68
2022/05/04 06:41:22;;;;;;;9.90;4.87;;;;;;;16.10;61.74;99717.19;5069539;28;20192;-69
2022/05/04 06:43:50;;;;;;;7.17;4.43;;;;;;;16.35;61.98;99715.19;5070509;28;20220;-68
2022/05/04 06:46:17;;;;;;;15.27;4.90;;;;;;;16.54;62.87;99716.81;5070478;28;20188;-68
2022/05/04 06:48:45;;;;;;;5.53;4.67;;;;;;;16.68;60.56;99715.56;5070428;28;20192;-72
2022/05/04 06:51:12;;;;;;;5.23;4.27;;;;;;;16.58;61.13;99718.00;5071781;28;20195;-71
2022/05/04 06:53:39;;;;;;;5.17;4.80;;;;;;;16.66;60.03;99723.84;5073441;28;20669;-68
2022/05/04 06:56:06;;;;;;;4.70;4.23;;;;;;;16.42;59.85;99729.38;5073040;28;20250;-73
2022/05/04 06:58:32;;;;;;;8.77;4.50;;;;;;;16.44;60.88;99724.56;5065655;28;20214;-68
2022/05/04 07:01:00;;;;;;;23.10;4.87;;;;;;;16.59;60.92;99716.94;5056871;28;20671;-68
2022/05/04 07:03:27;;;;;;;15.10;5.00;;;;;;;16.75;59.48;99721.66;5073389;28;20293;-70
2022/05/04 07:05:54;;;;;;;23.37;5.30;;;;;;;16.72;61.01;99714.06;5064627;28;20255;-70
2022/05/04 07:08:20;;;;;;;5.23;4.00;;;;;;;16.83;60.59;99708.72;5054440;28;20251;-71
2022/05/04 07:10:47;;;;;;;11.57;5.07;;;;;;;16.95;60.72;99708.75;5060504;28;20245;-69
2022/05/04 07:13:14;;;;;;;5.10;4.23;;;;;;;17.06;58.38;99707.94;5055429;28;20228;-69
2022/05/04 07:15:40;;;;;;;23.77;5.23;;;;;;;17.10;58.75;99707.22;5071059;28;20192;-70
2022/05/04 07:18:08;;;;;;;9.70;4.63;;;;;;;17.35;59.15;99697.06;5069797;28;20250;-70
2022/05/04 07:20:35;;;;;;;8.57;4.60;;;;;;;17.62;59.58;99702.78;5070633;28;20245;-69
2022/05/04 07:23:02;;;;;;;43.67;7.07;;;;;;;17.59;58.57;99700.56;5073286;28;20227;-68
2022/05/04 07:25:29;;;;;;;12.37;4.87;;;;;;;17.71;58.50;99704.06;5072420;28;20571;-69
2022/05/04 07:27:56;;;;;;;9.53;5.07;;;;;;;17.62;59.56;99702.78;5060123;28;20193;-67
2022/05/04 07:30:22;;;;;;;24.27;5.43;;;;;;;17.72;57.57;99705.72;5053186;28;20357;-69
2022/05/04 07:32:49;;;;;;;5.20;4.33;;;;;;;17.72;58.67;99703.03;5054380;28;20200;-69
2022/05/04 07:35:17;;;;;;;6.20;4.50;;;;;;;17.88;58.57;99707.66;5053413;28;20193;-69
2022/05/04 07:37:44;;;;;;;9.57;4.47;;;;;;;18.01;57.68;99710.06;5060137;28;20679;-70
2022/05/04 07:42:57;;;;;;;11.17;4.53;;;;;;;18.47;57.31;99718.00;5065768;28;20278;-70
2022/05/04 07:45:23;;;;;;;10.77;5.17;;;;;;;18.68;56.74;99720.81;5059907;28;20284;-70
2022/05/04 07:47:50;;;;;;;5.00;4.07;;;;;;;18.94;56.02;99719.34;5073149;28;20197;-70
2022/05/04 07:50:18;;;;;;;7.57;4.03;;;;;;;19.15;56.12;99716.75;5052689;28;20194;-70
2022/05/04 07:52:48;;;;;;;5.27;4.30;;;;;;;19.50;55.36;99721.88;5052863;28;20202;-72
2022/05/04 07:55:15;;;;;;;12.43;4.37;;;;;;;19.66;54.16;99712.94;5053251;28;20255;-71
2022/05/04 07:57:47;;;;;;;4.67;3.63;;;;;;;19.80;54.08;99722.28;5053648;28;20684;-69
2022/05/04 08:05:44;;;;;;;5.33;3.37;;;;;;;20.44;50.53;99732.25;5052242;28;20421;-73
2022/05/04 08:08:11;;;;;;;4.63;4.23;;;;;;;20.40;50.98;99736.53;5052049;28;20668;-73
2022/05/04 08:10:37;;;;;;;5.90;4.53;;;;;;;20.24;51.21;99734.72;5052630;28;20196;-73
2022/05/04 08:13:04;;;;;;;9.50;4.30;;;;;;;20.05;52.77;99720.72;5063868;28;20248;-75
2022/05/04 08:15:31;;;;;;;14.73;4.90;;;;;;;20.03;53.19;99714.78;5067808;28;20213;-71
2022/05/04 08:17:58;;;;;;;16.73;4.97;;;;;;;20.15;54.13;99717.38;5072859;28;20281;-71
2022/05/04 08:20:25;;;;;;;9.30;4.87;;;;;;;20.16;54.54;99719.81;5072907;28;20228;-71
2022/05/04 08:22:53;;;;;;;4.70;4.20;;;;;;;20.02;54.25;99718.53;5072349;28;20753;-73
2022/05/04 08:25:20;;;;;;;3.53;3.23;;;;;;;20.13;55.03;99719.50;5069738;28;20619;-72
2022/05/04 08:27:47;;;;;;;7.43;3.80;;;;;;;20.42;54.88;99718.22;5072704;28;20192;-71
2022/05/04 08:30:14;;;;;;;5.53;3.63;;;;;;;20.61;53.44;99721.38;5072335;28;20249;-69
2022/05/04 08:32:44;;;;;;;4.70;3.70;;;;;;;20.57;50.05;99726.47;5072771;28;20200;-70
2022/05/04 08:35:12;;;;;;;4.53;4.00;;;;;;;20.48;51.88;99728.00;5072193;28;20659;-69
2022/05/04 08:37:39;;;;;;;5.00;3.27;;;;;;;20.80;52.86;99728.84;5072535;28;20200;-68
2022/05/04 08:40:09;;;;;;;3.13;2.77;;;;;;;21.22;49.18;99737.88;5072093;28;20199;-69
2022/05/04 08:42:40;;;;;;;6.87;3.07;;;;;;;21.43;50.02;99731.53;5071794;28;20275;-69
2022/05/04 08:45:10;;;;;;;4.00;2.67;;;;;;;21.56;49.15;99731.06;5072315;28;20194;-68
2022/05/04 08:47:39;;;;;;;5.10;2.70;;;;;;;21.89;49.31;99729.94;5072255;28;20207;-68
2022/05/04 08:50:11;;;;;;;4.37;3.03;;;;;;;22.27;47.23;99732.25;5071869;28;20195;-68
2022/05/04 08:52:40;;;;;;;5.87;3.87;;;;;;;22.80;45.97;99734.56;5072122;28;20188;-67
2022/05/04 08:55:11;;;;;;;6.03;3.87;;;;;;;23.07;44.60;99738.66;5072602;28;20192;-69
2022/05/04 08:57:38;;;;;;;5.13;3.50;;;;;;;23.25;44.21;99740.88;5071170;28;20659;-68
2022/05/04 09:00:10;;;;;;;7.47;4.00;;;;;;;23.16;44.74;99726.19;5071350;28;20228;-69
2022/05/04 09:02:37;;;;;;;9.63;3.70;;;;;;;23.38;42.78;99732.16;5071761;28;20254;-69
2022/05/04 09:05:14;;;;;;;10.03;3.30;;;;;;;23.39;43.01;99728.38;5071685;28;20196;-71
2022/05/04 09:07:41;;;;;;;5.77;3.17;;;;;;;23.57;42.04;99733.19;5071961;28;20196;-70
2022/05/04 09:10:16;;;;;;;9.10;3.40;;;;;;;23.63;41.42;99721.28;5072418;28;20193;-72
2022/05/04 09:12:44;;;;;;;7.53;3.63;;;;;;;23.98;40.77;99729.31;5070704;28;20188;-69
2022/05/04 09:15:18;;;;;;;8.53;2.97;;;;;;;23.69;39.39;99725.59;5077121;28;20187;-69
2022/05/04 09:17:45;;;;;;;7.57;2.80;;;;;;;23.85;41.04;99713.59;5090677;28;20728;-69
2022/05/04 09:22:56;;;;;;;2.67;2.47;;;;;;;24.50;38.63;99710.59;5083970;28;20269;-67
2022/05/04 09:25:25;;;;;;;3.10;2.80;;;;;;;24.71;37.45;99711.31;5084382;28;20240;-68
2022/05/04 09:27:52;;;;;;;8.63;2.30;;;;;;;24.87;36.21;99705.47;5091253;28;20246;-68
2022/05/04 09:30:24;;;;;;;7.53;3.07;;;;;;;25.18;36.95;99700.59;5076080;28;20282;-70
2022/05/04 09:32:51;;;;;;;7.23;2.47;;;;;;;25.15;33.76;99690.28;5077078;28;20196;-71
2022/05/04 09:35:19;;;;;;;3.33;2.40;;;;;;;25.08;34.89;99686.28;5090667;28;20260;-71
2022/05/04 09:46:04;;;;;;;4.57;2.03;;;;;;;24.42;36.21;99659.59;5070755;28;20254;-65
2022/05/04 09:48:32;;;;;;;3.07;1.87;;;;;;;24.15;34.54;99652.97;5072024;28;20201;-67
2022/05/04 09:51:03;;;;;;;4.60;2.37;;;;;;;23.92;34.81;99668.03;5070617;28;20195;-66
2022/05/04 09:53:31;;;;;;;6.83;3.23;;;;;;;23.84;35.72;99657.72;5072189;28;20224;-66
2022/05/04 09:55:59;;;;;;;4.63;2.23;;;;;;;24.19;36.74;99654.03;5071313;28;20193;-67
2022/05/04 09:58:26;;;;;;;7.07;1.87;;;;;;;24.18;33.55;99650.50;5070728;28;20260;-67
2022/05/04 10:00:53;;;;;;;2.10;1.90;;;;;;;23.94;31.73;99652.25;5070809;28;20371;-67
2022/05/04 10:03:21;;;;;;;2.30;1.50;;;;;;;23.69;32.80;99655.06;5070338;28;20240;-67
2022/05/04 10:05:49;;;;;;;4.70;1.50;;;;;;;23.84;34.51;99640.59;5070942;28;20189;-67
2022/05/04 10:08:16;;;;;;;2.73;1.80;;;;;;;24.23;33.58;99641.53;5069351;28;20209;-65
2022/05/04 10:10:43;;;;;;;3.73;1.80;;;;;;;24.24;33.97;99646.69;5070459;28;20262;-63
2022/05/04 10:13:12;;;;;;;1.67;1.20;;;;;;;24.28;30.73;99639.59;5068182;28;20602;-65
2022/05/04 10:15:40;;;;;;;4.00;1.73;;;;;;;24.43;32.74;99636.75;5062755;28;20195;-62
2022/05/04 10:18:11;;;;;;;13.93;2.67;;;;;;;24.45;29.51;99637.31;5058402;28;20243;-63
2022/05/04 10:20:42;;;;;;;3.73;1.77;;;;;;;24.43;30.28;99634.03;5070707;28;20183;-63
2022/05/04 10:23:13;;;;;;;3.90;1.90;;;;;;;24.58;31.65;99625.78;5071426;28;20245;-63
2022/05/04 10:25:41;;;;;;;3.40;1.77;;;;;;;24.87;32.41;99629.38;5073965;28;20198;-64
2022/05/04 10:28:10;;;;;;;4.40;1.60;;;;;;;24.95;28.45;99631.47;5075267;28;20199;-63
2022/05/04 10:30:46;;;;;;;2.57;1.80;;;;;;;25.11;28.22;99626.69;5074751;28;20245;-63
2022/05/04 10:33:15;;;;;;;16.53;2.60;;;;;;;25.10;29.93;99625.09;5073867;28;20187;-63
2022/05/04 10:35:44;;;;;;;2.93;1.93;;;;;;;25.39;31.10;99614.22;5064965;28;20273;-64
2022/05/04 10:38:13;;;;;;;2.63;1.57;;;;;;;24.98;27.65;99618.44;5067376;28;20199;-64
2022/05/04 10:40:43;;;;;;;18.60;2.70;;;;;;;24.84;28.51;99619.06;5069189;28;20200;-65
2022/05/04 10:43:11;;;;;;;18.03;2.07;;;;;;;24.73;30.50;99609.41;5073247;28;20198;-65
2022/05/04 10:45:41;;;;;;;24.67;2.93;;;;;;;24.91;28.69;99614.13;5074547;28;20194;-65
2022/05/04 10:48:29;;;;;;;2.30;1.80;;;;;;;24.74;27.90;99608.31;5074909;28;20203;-64
2022/05/04 10:51:03;;;;;;;4.73;2.10;;;;;;;24.37;27.83;99613.47;5071394;28;20678;-64
2022/05/04 10:53:42;;;;;;;2.13;1.93;;;;;;;24.43;29.64;99600.66;5074863;28;20198;-64
2022/05/04 10:56:11;;;;;;;3.43;1.90;;;;;;;24.07;30.56;99596.56;5074560;28;20221;-64
2022/05/04 10:58:39;;;;;;;2.23;2.03;;;;;;;23.85;28.05;99599.63;5074322;28;20689;-64
2022/05/04 11:01:11;;;;;;;5.90;2.50;;;;;;;24.04;29.39;99597.94;5074302;28;20680;-64
2022/05/04 11:03:48;;;;;;;3.80;2.33;;;;;;;24.50;31.50;99591.09;5074094;28;20205;-65
2022/05/04 11:06:23;;;;;;;3.27;2.00;;;;;;;24.82;28.76;99596.00;5074574;28;20564;-66
2022/05/04 11:08:50;;;;;;;3.40;1.83;;;;;;;24.55;29.96;99585.59;5074458;28;20260;-64
2022/05/04 11:11:17;;;;;;;3.73;1.90;;;;;;;24.44;30.30;99585.97;5072919;28;20550;-64
2022/05/04 11:13:44;;;;;;;4.70;2.33;;;;;;;24.45;29.23;99588.41;5081582;28;20279;-64
2022/05/04 11:16:13;;;;;;;14.77;3.10;;;;;;;24.66;30.22;99584.47;5093311;28;20202;-65
2022/05/04 11:18:40;;;;;;;36.83;4.50;;;;;;;24.53;28.81;99579.66;5090660;28;20194;-67
2022/05/04 11:21:11;;;;;;;3.43;1.87;;;;;;;24.66;29.92;99583.63;5072748;28;20195;-64
2022/05/04 11:23:38;;;;;;;1.97;1.83;;;;;;;24.56;28.47;99579.09;5073190;28;20215;-64
2022/05/04 11:26:06;;;;;;;2.10;1.90;;;;;;;24.67;29.39;99575.22;5072921;28;20195;-65
2022/05/04 11:28:34;;;;;;;3.03;2.83;;;;;;;24.69;30.20;99583.09;5073234;28;20191;-65
2022/05/04 11:31:01;;;;;;;5.90;2.60;;;;;;;24.67;30.51;99569.78;5072907;28;20224;-65
2022/05/04 11:33:29;;;;;;;3.23;1.70;;;;;;;24.55;30.72;99566.59;5073045;28;20252;-64
2022/05/04 11:35:56;;;;;;;4.80;2.00;;;;;;;24.08;28.82;99561.00;5072472;28;20194;-65
2022/05/04 11:38:24;;;;;;;2.20;2.00;;;;;;;24.29;30.45;99553.50;5073856;28;20252;-65
2022/05/04 11:40:52;;;;;;;5.33;2.30;;;;;;;24.49;28.62;99559.59;5066869;28;20200;-65
2022/05/04 11:43:37;;;;;;;1.83;1.83;;;;;;;24.43;29.23;99552.56;5072461;28;20248;-66
2022/05/04 11:46:07;;;;;;;4.93;2.50;;;;;;;24.54;30.31;99554.09;5073187;28;20190;-64
2022/05/04 11:48:37;;;;;;;2.40;2.20;;;;;;;24.69;29.50;99551.31;5072749;28;20195;-67
2022/05/04 11:51:05;;;;;;;3.10;2.53;;;;;;;24.56;30.39;99543.78;5072410;28;20224;-66
2022/05/04 11:53:31;;;;;;;2.83;2.20;;;;;;;24.67;30.92;99536.38;5072289;28;20226;-65
2022/05/04 11:56:00;;;;;;;16.00;2.90;;;;;;;24.91;29.72;99537.22;5072494;28;20727;-64
2022/05/04 11:58:27;;;;;;;3.30;2.17;;;;;;;25.07;30.70;99532.44;5071865;28;20203;-66
2022/05/04 12:00:55;;;;;;;3.23;1.93;;;;;;;25.08;29.77;99535.66;5072526;28;20242;-65
2022/05/04 12:03:24;;;;;;;4.97;1.77;;;;;;;25.25;28.81;99531.66;5070737;28;20281;-66
2022/05/04 12:05:54;;;;;;;8.40;2.40;;;;;;;25.34;28.63;99524.50;5088829;28;20222;-66
2022/05/04 12:08:22;;;;;;;2.20;2.00;;;;;;;25.29;28.86;99521.84;5093333;28;20191;-65
2022/05/04 12:10:50;;;;;;;4.13;2.13;;;;;;;25.31;28.81;99525.09;5093517;28;20202;-66
2022/05/04 12:13:21;;;;;;;2.33;2.10;;;;;;;25.32;27.97;99519.38;5092640;28;20572;-65
2022/05/04 12:15:49;;;;;;;2.40;2.07;;;;;;;25.41;29.54;99516.81;5093181;28;20294;-67